sensor_id;sensor_type;location;lat;lon;timestamp;P1;durP1;ratioP1;P2;durP2;ratioP2
15261;SDS011;7733;51.554;13.590;2023-12-20T00:01:35;5.50;;;5.10;;
15261;SDS011;7733;51.554;13.590;2023-12-20T00:04:01;5.50;;;5.20;;
15261;SDS011;7733;51.554;13.590;2023-12-20T00:06:27;5.67;;;5.33;;
15261;SDS011;7733;51.554;13.590;2023-12-20T00:08:53;5.03;;;4.73;;
15261;SDS011;7733;51.554;13.590;2023-12-20T00:11:19;4.90;;;4.60;;
15261;SDS011;7733;51.554;13.590;2023-12-20T00:13:44;4.80;;;4.60;;
15261;SDS011;7733;51.554;13.590;2023-12-20T00:16:10;5.23;;;4.93;;
15261;SDS011;7733;51.554;13.590;2023-12-20T00:18:36;4.67;;;4.37;;
15261;SDS011;7733;51.554;13.590;2023-12-20T00:21:02;4.90;;;4.60;;
15261;SDS011;7733;51.554;13.590;2023-12-20T00:23:28;4.33;;;4.13;;
15261;SDS011;7733;51.554;13.590;2023-12-20T00:25:53;4.30;;;4.10;;
15261;SDS011;7733;51.554;13.590;2023-12-20T00:28:19;4.73;;;4.43;;
15261;SDS011;7733;51.554;13.590;2023-12-20T00:30:45;4.23;;;4.03;;
15261;SDS011;7733;51.554;13.590;2023-12-20T00:33:11;4.20;;;4.00;;
15261;SDS011;7733;51.554;13.590;2023-12-20T00:35:36;4.40;;;4.20;;
15261;SDS011;7733;51.554;13.590;2023-12-20T00:38:02;4.23;;;4.03;;
15261;SDS011;7733;51.554;13.590;2023-12-20T00:40:30;4.03;;;3.83;;
15261;SDS011;7733;51.554;13.590;2023-12-20T00:42:55;4.23;;;4.03;;
15261;SDS011;7733;51.554;13.590;2023-12-20T00:45:21;4.00;;;3.80;;
15261;SDS011;7733;51.554;13.590;2023-12-20T00:47:47;4.23;;;3.93;;
15261;SDS011;7733;51.554;13.590;2023-12-20T00:50:12;3.57;;;3.47;;
15261;SDS011;7733;51.554;13.590;2023-12-20T00:52:38;3.97;;;3.77;;
15261;SDS011;7733;51.554;13.590;2023-12-20T00:55:04;3.87;;;3.67;;
15261;SDS011;7733;51.554;13.590;2023-12-20T00:57:30;3.70;;;3.60;;
15261;SDS011;7733;51.554;13.590;2023-12-20T00:59:56;4.17;;;3.97;;
15261;SDS011;7733;51.554;13.590;2023-12-20T01:02:22;4.00;;;3.80;;
15261;SDS011;7733;51.554;13.590;2023-12-20T01:04:47;4.00;;;3.80;;
15261;SDS011;7733;51.554;13.590;2023-12-20T01:07:13;4.20;;;3.90;;
15261;SDS011;7733;51.554;13.590;2023-12-20T01:09:39;4.00;;;3.80;;
15261;SDS011;7733;51.554;13.590;2023-12-20T01:12:05;3.70;;;3.60;;
15261;SDS011;7733;51.554;13.590;2023-12-20T01:14:30;4.13;;;3.93;;
15261;SDS011;7733;51.554;13.590;2023-12-20T01:16:56;4.20;;;4.00;;
15261;SDS011;7733;51.554;13.590;2023-12-20T01:19:22;4.40;;;4.17;;
15261;SDS011;7733;51.554;13.590;2023-12-20T01:21:49;4.00;;;3.80;;
15261;SDS011;7733;51.554;13.590;2023-12-20T01:24:15;4.03;;;3.83;;
15261;SDS011;7733;51.554;13.590;2023-12-20T01:26:41;3.83;;;3.73;;
15261;SDS011;7733;51.554;13.590;2023-12-20T01:29:07;4.23;;;4.13;;
15261;SDS011;7733;51.554;13.590;2023-12-20T01:31:33;3.97;;;3.77;;
15261;SDS011;7733;51.554;13.590;2023-12-20T01:33:58;4.03;;;3.83;;
15261;SDS011;7733;51.554;13.590;2023-12-20T01:36:24;4.03;;;3.83;;
15261;SDS011;7733;51.554;13.590;2023-12-20T01:38:50;3.90;;;3.70;;
15261;SDS011;7733;51.554;13.590;2023-12-20T01:41:15;4.10;;;3.90;;
15261;SDS011;7733;51.554;13.590;2023-12-20T01:43:41;3.63;;;3.53;;
15261;SDS011;7733;51.554;13.590;2023-12-20T01:46:07;3.80;;;3.60;;
15261;SDS011;7733;51.554;13.590;2023-12-20T01:48:33;3.87;;;3.67;;
15261;SDS011;7733;51.554;13.590;2023-12-20T01:51:00;3.90;;;3.77;;
15261;SDS011;7733;51.554;13.590;2023-12-20T01:53:28;3.73;;;3.60;;
15261;SDS011;7733;51.554;13.590;2023-12-20T01:55:55;4.20;;;4.00;;
15261;SDS011;7733;51.554;13.590;2023-12-20T01:58:23;3.50;;;3.40;;
15261;SDS011;7733;51.554;13.590;2023-12-20T02:00:51;3.70;;;3.60;;
15261;SDS011;7733;51.554;13.590;2023-12-20T02:03:17;4.10;;;3.90;;
15261;SDS011;7733;51.554;13.590;2023-12-20T02:05:43;3.60;;;3.37;;
15261;SDS011;7733;51.554;13.590;2023-12-20T02:08:11;3.27;;;3.17;;
15261;SDS011;7733;51.554;13.590;2023-12-20T02:10:37;3.17;;;3.07;;
15261;SDS011;7733;51.554;13.590;2023-12-20T02:13:03;3.40;;;3.20;;
15261;SDS011;7733;51.554;13.590;2023-12-20T02:15:29;3.60;;;3.40;;
15261;SDS011;7733;51.554;13.590;2023-12-20T02:17:55;3.43;;;3.33;;
15261;SDS011;7733;51.554;13.590;2023-12-20T02:20:21;3.20;;;3.10;;
15261;SDS011;7733;51.554;13.590;2023-12-20T02:22:47;3.50;;;3.30;;
15261;SDS011;7733;51.554;13.590;2023-12-20T02:25:12;2.97;;;2.87;;
15261;SDS011;7733;51.554;13.590;2023-12-20T02:27:39;3.10;;;3.00;;
15261;SDS011;7733;51.554;13.590;2023-12-20T02:30:06;3.20;;;3.10;;
15261;SDS011;7733;51.554;13.590;2023-12-20T02:32:33;3.27;;;3.07;;
15261;SDS011;7733;51.554;13.590;2023-12-20T02:34:59;3.20;;;3.10;;
15261;SDS011;7733;51.554;13.590;2023-12-20T02:37:25;3.30;;;3.20;;
15261;SDS011;7733;51.554;13.590;2023-12-20T02:39:50;2.83;;;2.73;;
15261;SDS011;7733;51.554;13.590;2023-12-20T02:42:16;3.20;;;3.10;;
15261;SDS011;7733;51.554;13.590;2023-12-20T02:44:42;3.27;;;3.17;;
15261;SDS011;7733;51.554;13.590;2023-12-20T02:47:08;3.43;;;3.23;;
15261;SDS011;7733;51.554;13.590;2023-12-20T02:49:33;2.67;;;2.57;;
15261;SDS011;7733;51.554;13.590;2023-12-20T02:51:59;3.00;;;2.90;;
15261;SDS011;7733;51.554;13.590;2023-12-20T02:54:25;3.20;;;3.03;;
15261;SDS011;7733;51.554;13.590;2023-12-20T02:56:50;3.37;;;3.10;;
15261;SDS011;7733;51.554;13.590;2023-12-20T02:59:16;2.97;;;2.83;;
15261;SDS011;7733;51.554;13.590;2023-12-20T03:01:44;3.23;;;3.13;;
15261;SDS011;7733;51.554;13.590;2023-12-20T03:04:11;3.00;;;2.90;;
15261;SDS011;7733;51.554;13.590;2023-12-20T03:06:37;3.20;;;3.00;;
15261;SDS011;7733;51.554;13.590;2023-12-20T03:09:04;3.03;;;2.93;;
15261;SDS011;7733;51.554;13.590;2023-12-20T03:11:30;3.27;;;3.17;;
15261;SDS011;7733;51.554;13.590;2023-12-20T03:13:56;3.17;;;3.07;;
15261;SDS011;7733;51.554;13.590;2023-12-20T03:16:22;3.23;;;3.13;;
15261;SDS011;7733;51.554;13.590;2023-12-20T03:18:48;3.40;;;3.20;;
15261;SDS011;7733;51.554;13.590;2023-12-20T03:21:14;3.20;;;3.10;;
15261;SDS011;7733;51.554;13.590;2023-12-20T03:23:40;3.20;;;3.10;;
15261;SDS011;7733;51.554;13.590;2023-12-20T03:26:06;3.13;;;3.03;;
15261;SDS011;7733;51.554;13.590;2023-12-20T03:28:33;2.90;;;2.80;;
15261;SDS011;7733;51.554;13.590;2023-12-20T03:30:59;2.93;;;2.83;;
15261;SDS011;7733;51.554;13.590;2023-12-20T03:33:25;3.07;;;2.97;;
15261;SDS011;7733;51.554;13.590;2023-12-20T03:35:51;3.10;;;3.00;;
15261;SDS011;7733;51.554;13.590;2023-12-20T03:38:16;2.57;;;2.47;;
15261;SDS011;7733;51.554;13.590;2023-12-20T03:40:42;2.97;;;2.87;;
15261;SDS011;7733;51.554;13.590;2023-12-20T03:43:08;3.03;;;2.93;;
15261;SDS011;7733;51.554;13.590;2023-12-20T03:45:33;2.83;;;2.73;;
15261;SDS011;7733;51.554;13.590;2023-12-20T03:47:59;2.77;;;2.67;;
15261;SDS011;7733;51.554;13.590;2023-12-20T03:50:25;2.87;;;2.77;;
15261;SDS011;7733;51.554;13.590;2023-12-20T03:52:51;3.27;;;3.17;;
15261;SDS011;7733;51.554;13.590;2023-12-20T03:55:18;2.60;;;2.50;;
15261;SDS011;7733;51.554;13.590;2023-12-20T03:57:44;3.00;;;2.90;;
15261;SDS011;7733;51.554;13.590;2023-12-20T04:00:10;2.80;;;2.70;;
15261;SDS011;7733;51.554;13.590;2023-12-20T04:02:39;2.67;;;2.57;;
15261;SDS011;7733;51.554;13.590;2023-12-20T04:05:07;2.90;;;2.80;;
15261;SDS011;7733;51.554;13.590;2023-12-20T04:07:37;3.20;;;3.10;;
15261;SDS011;7733;51.554;13.590;2023-12-20T04:10:03;3.17;;;3.07;;
15261;SDS011;7733;51.554;13.590;2023-12-20T04:12:30;2.73;;;2.63;;
15261;SDS011;7733;51.554;13.590;2023-12-20T04:14:57;2.90;;;2.80;;
15261;SDS011;7733;51.554;13.590;2023-12-20T04:17:23;3.13;;;3.03;;
15261;SDS011;7733;51.554;13.590;2023-12-20T04:19:52;3.03;;;2.93;;
15261;SDS011;7733;51.554;13.590;2023-12-20T04:22:17;3.47;;;3.27;;
15261;SDS011;7733;51.554;13.590;2023-12-20T04:24:44;2.93;;;2.83;;
15261;SDS011;7733;51.554;13.590;2023-12-20T04:27:10;3.00;;;2.90;;
15261;SDS011;7733;51.554;13.590;2023-12-20T04:29:36;3.10;;;2.90;;
15261;SDS011;7733;51.554;13.590;2023-12-20T04:32:02;3.03;;;2.90;;
15261;SDS011;7733;51.554;13.590;2023-12-20T04:34:28;2.97;;;2.87;;
15261;SDS011;7733;51.554;13.590;2023-12-20T04:36:54;2.80;;;2.70;;
15261;SDS011;7733;51.554;13.590;2023-12-20T04:39:20;3.50;;;3.30;;
15261;SDS011;7733;51.554;13.590;2023-12-20T04:41:46;3.10;;;3.00;;
15261;SDS011;7733;51.554;13.590;2023-12-20T04:44:15;3.20;;;3.10;;
15261;SDS011;7733;51.554;13.590;2023-12-20T04:46:41;3.67;;;3.57;;
15261;SDS011;7733;51.554;13.590;2023-12-20T04:49:07;2.87;;;2.77;;
15261;SDS011;7733;51.554;13.590;2023-12-20T04:51:33;3.10;;;3.00;;
15261;SDS011;7733;51.554;13.590;2023-12-20T04:53:59;5.00;;;4.73;;
15261;SDS011;7733;51.554;13.590;2023-12-20T04:56:26;5.57;;;5.27;;
15261;SDS011;7733;51.554;13.590;2023-12-20T04:58:51;5.70;;;5.30;;
15261;SDS011;7733;51.554;13.590;2023-12-20T05:01:17;3.10;;;3.00;;
15261;SDS011;7733;51.554;13.590;2023-12-20T05:03:43;2.93;;;2.83;;
15261;SDS011;7733;51.554;13.590;2023-12-20T05:06:09;3.13;;;3.03;;
15261;SDS011;7733;51.554;13.590;2023-12-20T05:08:35;2.70;;;2.60;;
15261;SDS011;7733;51.554;13.590;2023-12-20T05:11:01;2.30;;;2.27;;
15261;SDS011;7733;51.554;13.590;2023-12-20T05:13:28;2.50;;;2.30;;
15261;SDS011;7733;51.554;13.590;2023-12-20T05:15:54;2.33;;;2.13;;
15261;SDS011;7733;51.554;13.590;2023-12-20T05:18:20;2.40;;;2.30;;
15261;SDS011;7733;51.554;13.590;2023-12-20T05:20:47;3.50;;;3.20;;
15261;SDS011;7733;51.554;13.590;2023-12-20T05:23:15;2.10;;;1.90;;
15261;SDS011;7733;51.554;13.590;2023-12-20T05:25:41;2.47;;;2.37;;
15261;SDS011;7733;51.554;13.590;2023-12-20T05:28:06;8.60;;;5.73;;
15261;SDS011;7733;51.554;13.590;2023-12-20T05:30:32;1.80;;;1.77;;
15261;SDS011;7733;51.554;13.590;2023-12-20T05:32:58;2.50;;;2.37;;
15261;SDS011;7733;51.554;13.590;2023-12-20T05:35:23;2.17;;;1.97;;
15261;SDS011;7733;51.554;13.590;2023-12-20T05:37:49;2.30;;;2.20;;
15261;SDS011;7733;51.554;13.590;2023-12-20T05:40:15;2.50;;;2.40;;
15261;SDS011;7733;51.554;13.590;2023-12-20T05:42:41;2.40;;;2.30;;
15261;SDS011;7733;51.554;13.590;2023-12-20T05:45:06;2.33;;;2.23;;
15261;SDS011;7733;51.554;13.590;2023-12-20T05:47:33;3.10;;;2.60;;
15261;SDS011;7733;51.554;13.590;2023-12-20T05:49:58;2.60;;;2.50;;
15261;SDS011;7733;51.554;13.590;2023-12-20T05:52:24;3.00;;;2.80;;
15261;SDS011;7733;51.554;13.590;2023-12-20T05:54:50;2.70;;;2.50;;
15261;SDS011;7733;51.554;13.590;2023-12-20T05:57:15;3.00;;;2.80;;
15261;SDS011;7733;51.554;13.590;2023-12-20T05:59:41;3.00;;;2.90;;
15261;SDS011;7733;51.554;13.590;2023-12-20T06:02:07;3.10;;;2.90;;
15261;SDS011;7733;51.554;13.590;2023-12-20T06:04:33;3.47;;;3.20;;
15261;SDS011;7733;51.554;13.590;2023-12-20T06:06:59;3.00;;;2.90;;
15261;SDS011;7733;51.554;13.590;2023-12-20T06:09:26;3.57;;;3.23;;
15261;SDS011;7733;51.554;13.590;2023-12-20T06:11:52;3.40;;;2.80;;
15261;SDS011;7733;51.554;13.590;2023-12-20T06:14:18;3.30;;;3.00;;
15261;SDS011;7733;51.554;13.590;2023-12-20T06:16:46;3.30;;;3.00;;
15261;SDS011;7733;51.554;13.590;2023-12-20T06:19:12;4.03;;;3.73;;
15261;SDS011;7733;51.554;13.590;2023-12-20T06:21:38;3.77;;;3.47;;
15261;SDS011;7733;51.554;13.590;2023-12-20T06:24:04;4.27;;;3.90;;
15261;SDS011;7733;51.554;13.590;2023-12-20T06:26:30;4.40;;;4.10;;
15261;SDS011;7733;51.554;13.590;2023-12-20T06:28:55;4.60;;;4.13;;
15261;SDS011;7733;51.554;13.590;2023-12-20T06:31:21;5.10;;;4.70;;
15261;SDS011;7733;51.554;13.590;2023-12-20T06:33:47;4.60;;;4.30;;
15261;SDS011;7733;51.554;13.590;2023-12-20T06:36:14;5.20;;;4.57;;
15261;SDS011;7733;51.554;13.590;2023-12-20T06:38:40;4.87;;;4.53;;
15261;SDS011;7733;51.554;13.590;2023-12-20T06:41:07;4.80;;;4.50;;
15261;SDS011;7733;51.554;13.590;2023-12-20T06:43:33;5.37;;;4.90;;
15261;SDS011;7733;51.554;13.590;2023-12-20T06:46:00;5.00;;;4.50;;
15261;SDS011;7733;51.554;13.590;2023-12-20T06:48:26;5.10;;;4.70;;
15261;SDS011;7733;51.554;13.590;2023-12-20T06:50:52;4.73;;;4.37;;
15261;SDS011;7733;51.554;13.590;2023-12-20T06:53:18;6.70;;;5.00;;
15261;SDS011;7733;51.554;13.590;2023-12-20T06:55:43;6.03;;;5.53;;
15261;SDS011;7733;51.554;13.590;2023-12-20T06:58:09;6.37;;;5.87;;
15261;SDS011;7733;51.554;13.590;2023-12-20T07:00:35;6.67;;;6.07;;
15261;SDS011;7733;51.554;13.590;2023-12-20T07:03:01;7.40;;;6.80;;
15261;SDS011;7733;51.554;13.590;2023-12-20T07:05:26;6.80;;;6.40;;
15261;SDS011;7733;51.554;13.590;2023-12-20T07:07:52;7.73;;;6.93;;
15261;SDS011;7733;51.554;13.590;2023-12-20T07:10:18;7.50;;;6.80;;
15261;SDS011;7733;51.554;13.590;2023-12-20T07:12:44;8.13;;;7.33;;
15261;SDS011;7733;51.554;13.590;2023-12-20T07:15:10;8.27;;;6.60;;
15261;SDS011;7733;51.554;13.590;2023-12-20T07:17:36;7.10;;;6.40;;
15261;SDS011;7733;51.554;13.590;2023-12-20T07:20:02;6.63;;;6.13;;
15261;SDS011;7733;51.554;13.590;2023-12-20T07:22:30;6.67;;;6.17;;
15261;SDS011;7733;51.554;13.590;2023-12-20T07:24:58;6.23;;;5.83;;
15261;SDS011;7733;51.554;13.590;2023-12-20T07:27:25;6.13;;;5.63;;
15261;SDS011;7733;51.554;13.590;2023-12-20T07:29:52;6.40;;;5.80;;
15261;SDS011;7733;51.554;13.590;2023-12-20T07:32:18;5.80;;;5.30;;
15261;SDS011;7733;51.554;13.590;2023-12-20T07:34:44;7.60;;;5.47;;
15261;SDS011;7733;51.554;13.590;2023-12-20T07:37:10;6.33;;;5.77;;
15261;SDS011;7733;51.554;13.590;2023-12-20T07:39:37;5.70;;;4.97;;
15261;SDS011;7733;51.554;13.590;2023-12-20T07:42:05;5.13;;;4.67;;
15261;SDS011;7733;51.554;13.590;2023-12-20T07:44:31;6.03;;;4.70;;
15261;SDS011;7733;51.554;13.590;2023-12-20T07:46:57;5.83;;;4.43;;
15261;SDS011;7733;51.554;13.590;2023-12-20T07:49:23;4.40;;;4.10;;
15261;SDS011;7733;51.554;13.590;2023-12-20T07:51:49;5.00;;;4.00;;
15261;SDS011;7733;51.554;13.590;2023-12-20T07:54:15;3.97;;;3.57;;
15261;SDS011;7733;51.554;13.590;2023-12-20T07:56:41;4.97;;;3.60;;
15261;SDS011;7733;51.554;13.590;2023-12-20T07:59:07;7.43;;;3.60;;
15261;SDS011;7733;51.554;13.590;2023-12-20T08:01:33;7.00;;;3.80;;
15261;SDS011;7733;51.554;13.590;2023-12-20T08:03:58;5.87;;;3.40;;
15261;SDS011;7733;51.554;13.590;2023-12-20T08:06:24;7.47;;;3.37;;
15261;SDS011;7733;51.554;13.590;2023-12-20T08:08:50;5.97;;;3.63;;
15261;SDS011;7733;51.554;13.590;2023-12-20T08:11:16;5.00;;;3.23;;
15261;SDS011;7733;51.554;13.590;2023-12-20T08:13:42;3.60;;;3.30;;
15261;SDS011;7733;51.554;13.590;2023-12-20T08:16:08;5.60;;;3.30;;
15261;SDS011;7733;51.554;13.590;2023-12-20T08:18:34;3.83;;;3.23;;
15261;SDS011;7733;51.554;13.590;2023-12-20T08:21:00;5.13;;;3.47;;
15261;SDS011;7733;51.554;13.590;2023-12-20T08:23:26;4.83;;;4.23;;
15261;SDS011;7733;51.554;13.590;2023-12-20T08:25:52;5.10;;;3.90;;
15261;SDS011;7733;51.554;13.590;2023-12-20T08:28:18;4.57;;;4.13;;
15261;SDS011;7733;51.554;13.590;2023-12-20T08:30:43;4.33;;;3.93;;
15261;SDS011;7733;51.554;13.590;2023-12-20T08:33:09;4.53;;;4.13;;
15261;SDS011;7733;51.554;13.590;2023-12-20T08:35:40;5.20;;;4.70;;
15261;SDS011;7733;51.554;13.590;2023-12-20T08:38:06;4.83;;;4.50;;
15261;SDS011;7733;51.554;13.590;2023-12-20T08:40:32;4.50;;;4.20;;
15261;SDS011;7733;51.554;13.590;2023-12-20T08:42:58;5.30;;;4.90;;
15261;SDS011;7733;51.554;13.590;2023-12-20T08:45:24;4.20;;;4.00;;
15261;SDS011;7733;51.554;13.590;2023-12-20T08:47:50;4.10;;;3.80;;
15261;SDS011;7733;51.554;13.590;2023-12-20T08:50:15;3.70;;;3.50;;
15261;SDS011;7733;51.554;13.590;2023-12-20T08:52:41;3.23;;;2.97;;
15261;SDS011;7733;51.554;13.590;2023-12-20T08:55:07;3.00;;;2.80;;
15261;SDS011;7733;51.554;13.590;2023-12-20T08:57:35;3.20;;;2.90;;
15261;SDS011;7733;51.554;13.590;2023-12-20T09:00:01;2.80;;;2.60;;
15261;SDS011;7733;51.554;13.590;2023-12-20T09:02:28;2.60;;;2.50;;
15261;SDS011;7733;51.554;13.590;2023-12-20T09:04:54;3.00;;;2.53;;
15261;SDS011;7733;51.554;13.590;2023-12-20T09:07:27;2.60;;;2.23;;
15261;SDS011;7733;51.554;13.590;2023-12-20T09:09:55;2.00;;;1.90;;
15261;SDS011;7733;51.554;13.590;2023-12-20T09:12:21;1.90;;;1.80;;
15261;SDS011;7733;51.554;13.590;2023-12-20T09:14:47;2.30;;;1.70;;
15261;SDS011;7733;51.554;13.590;2023-12-20T09:17:16;2.20;;;1.90;;
15261;SDS011;7733;51.554;13.590;2023-12-20T09:19:43;2.60;;;1.90;;
15261;SDS011;7733;51.554;13.590;2023-12-20T09:22:10;2.43;;;1.70;;
15261;SDS011;7733;51.554;13.590;2023-12-20T09:24:36;2.17;;;1.57;;
15261;SDS011;7733;51.554;13.590;2023-12-20T09:27:02;1.50;;;1.40;;
15261;SDS011;7733;51.554;13.590;2023-12-20T09:29:28;2.57;;;1.57;;
15261;SDS011;7733;51.554;13.590;2023-12-20T09:31:54;2.50;;;1.20;;
15261;SDS011;7733;51.554;13.590;2023-12-20T09:34:20;2.40;;;1.40;;
15261;SDS011;7733;51.554;13.590;2023-12-20T09:36:47;2.93;;;1.33;;
15261;SDS011;7733;51.554;13.590;2023-12-20T09:39:16;2.33;;;1.60;;
15261;SDS011;7733;51.554;13.590;2023-12-20T09:42:06;2.00;;;1.50;;
15261;SDS011;7733;51.554;13.590;2023-12-20T09:44:33;2.67;;;1.17;;
15261;SDS011;7733;51.554;13.590;2023-12-20T09:47:01;1.27;;;1.17;;
15261;SDS011;7733;51.554;13.590;2023-12-20T09:49:29;3.07;;;1.60;;
15261;SDS011;7733;51.554;13.590;2023-12-20T09:51:57;2.13;;;1.20;;
15261;SDS011;7733;51.554;13.590;2023-12-20T09:54:25;3.70;;;1.40;;
15261;SDS011;7733;51.554;13.590;2023-12-20T09:56:53;4.03;;;1.50;;
15261;SDS011;7733;51.554;13.590;2023-12-20T09:59:19;2.30;;;1.10;;
15261;SDS011;7733;51.554;13.590;2023-12-20T10:01:45;3.97;;;1.20;;
15261;SDS011;7733;51.554;13.590;2023-12-20T10:04:11;2.70;;;1.30;;
15261;SDS011;7733;51.554;13.590;2023-12-20T10:06:41;2.70;;;1.57;;
15261;SDS011;7733;51.554;13.590;2023-12-20T10:09:11;2.40;;;1.37;;
15261;SDS011;7733;51.554;13.590;2023-12-20T10:11:37;5.20;;;1.40;;
15261;SDS011;7733;51.554;13.590;2023-12-20T10:14:04;1.37;;;0.97;;
15261;SDS011;7733;51.554;13.590;2023-12-20T10:16:32;2.63;;;1.20;;
15261;SDS011;7733;51.554;13.590;2023-12-20T10:18:59;1.10;;;0.87;;
15261;SDS011;7733;51.554;13.590;2023-12-20T10:21:26;2.30;;;1.10;;
15261;SDS011;7733;51.554;13.590;2023-12-20T10:23:53;4.07;;;1.30;;
15261;SDS011;7733;51.554;13.590;2023-12-20T10:26:20;1.90;;;1.30;;
15261;SDS011;7733;51.554;13.590;2023-12-20T10:28:54;2.50;;;1.60;;
15261;SDS011;7733;51.554;13.590;2023-12-20T10:33:59;2.73;;;1.20;;
15261;SDS011;7733;51.554;13.590;2023-12-20T10:36:27;2.80;;;1.20;;
15261;SDS011;7733;51.554;13.590;2023-12-20T10:38:56;4.10;;;1.70;;
15261;SDS011;7733;51.554;13.590;2023-12-20T10:41:30;2.20;;;1.20;;
15261;SDS011;7733;51.554;13.590;2023-12-20T10:44:01;2.73;;;1.50;;
15261;SDS011;7733;51.554;13.590;2023-12-20T10:46:32;2.37;;;1.10;;
15261;SDS011;7733;51.554;13.590;2023-12-20T10:48:59;2.83;;;1.47;;
15261;SDS011;7733;51.554;13.590;2023-12-20T10:51:28;3.40;;;1.50;;
15261;SDS011;7733;51.554;13.590;2023-12-20T10:53:57;2.07;;;1.40;;
15261;SDS011;7733;51.554;13.590;2023-12-20T10:56:23;4.50;;;1.30;;
15261;SDS011;7733;51.554;13.590;2023-12-20T10:58:49;3.57;;;1.30;;
15261;SDS011;7733;51.554;13.590;2023-12-20T11:01:16;3.97;;;1.27;;
15261;SDS011;7733;51.554;13.590;2023-12-20T11:08:53;1.93;;;1.40;;
15261;SDS011;7733;51.554;13.590;2023-12-20T11:11:37;2.17;;;1.23;;
15261;SDS011;7733;51.554;13.590;2023-12-20T11:14:41;3.67;;;1.47;;
15261;SDS011;7733;51.554;13.590;2023-12-20T11:19:38;2.37;;;1.40;;
15261;SDS011;7733;51.554;13.590;2023-12-20T11:22:18;3.30;;;1.70;;
15261;SDS011;7733;51.554;13.590;2023-12-20T11:24:50;1.93;;;1.43;;
15261;SDS011;7733;51.554;13.590;2023-12-20T11:27:18;2.33;;;1.40;;
15261;SDS011;7733;51.554;13.590;2023-12-20T11:29:51;4.20;;;1.43;;
15261;SDS011;7733;51.554;13.590;2023-12-20T11:32:28;2.47;;;1.43;;
15261;SDS011;7733;51.554;13.590;2023-12-20T11:34:55;3.80;;;1.40;;
15261;SDS011;7733;51.554;13.590;2023-12-20T11:37:36;2.57;;;1.60;;
15261;SDS011;7733;51.554;13.590;2023-12-20T11:40:07;2.10;;;1.70;;
15261;SDS011;7733;51.554;13.590;2023-12-20T11:42:40;3.70;;;1.53;;
15261;SDS011;7733;51.554;13.590;2023-12-20T11:45:10;2.03;;;1.40;;
15261;SDS011;7733;51.554;13.590;2023-12-20T11:47:45;3.40;;;1.47;;
15261;SDS011;7733;51.554;13.590;2023-12-20T11:50:19;2.60;;;1.30;;
15261;SDS011;7733;51.554;13.590;2023-12-20T11:52:47;3.17;;;1.50;;
15261;SDS011;7733;51.554;13.590;2023-12-20T11:55:14;2.97;;;1.57;;
15261;SDS011;7733;51.554;13.590;2023-12-20T11:57:40;1.60;;;1.40;;
15261;SDS011;7733;51.554;13.590;2023-12-20T12:00:07;4.13;;;1.23;;
15261;SDS011;7733;51.554;13.590;2023-12-20T12:02:34;4.67;;;1.47;;
15261;SDS011;7733;51.554;13.590;2023-12-20T12:04:59;3.60;;;1.50;;
15261;SDS011;7733;51.554;13.590;2023-12-20T12:07:25;1.87;;;1.37;;
15261;SDS011;7733;51.554;13.590;2023-12-20T12:09:51;3.27;;;1.70;;
15261;SDS011;7733;51.554;13.590;2023-12-20T12:12:17;2.90;;;1.30;;
15261;SDS011;7733;51.554;13.590;2023-12-20T12:14:44;2.40;;;1.30;;
15261;SDS011;7733;51.554;13.590;2023-12-20T12:17:11;3.13;;;1.50;;
15261;SDS011;7733;51.554;13.590;2023-12-20T12:19:38;4.40;;;1.40;;
15261;SDS011;7733;51.554;13.590;2023-12-20T12:22:14;2.70;;;1.60;;
15261;SDS011;7733;51.554;13.590;2023-12-20T12:24:44;1.70;;;1.30;;
15261;SDS011;7733;51.554;13.590;2023-12-20T12:27:12;5.27;;;1.77;;
15261;SDS011;7733;51.554;13.590;2023-12-20T12:29:39;3.57;;;1.57;;
15261;SDS011;7733;51.554;13.590;2023-12-20T12:32:08;4.07;;;1.80;;
15261;SDS011;7733;51.554;13.590;2023-12-20T12:34:35;3.40;;;1.70;;
15261;SDS011;7733;51.554;13.590;2023-12-20T12:37:01;5.60;;;1.83;;
15261;SDS011;7733;51.554;13.590;2023-12-20T12:39:29;1.83;;;1.60;;
15261;SDS011;7733;51.554;13.590;2023-12-20T12:41:55;2.33;;;1.57;;
15261;SDS011;7733;51.554;13.590;2023-12-20T12:44:22;2.77;;;1.30;;
15261;SDS011;7733;51.554;13.590;2023-12-20T12:46:51;2.50;;;1.53;;
15261;SDS011;7733;51.554;13.590;2023-12-20T12:49:18;3.90;;;1.53;;
15261;SDS011;7733;51.554;13.590;2023-12-20T12:51:46;2.80;;;1.57;;
15261;SDS011;7733;51.554;13.590;2023-12-20T12:54:12;1.90;;;1.30;;
15261;SDS011;7733;51.554;13.590;2023-12-20T12:56:40;4.10;;;1.63;;
15261;SDS011;7733;51.554;13.590;2023-12-20T12:59:06;3.77;;;1.40;;
15261;SDS011;7733;51.554;13.590;2023-12-20T13:01:32;2.37;;;1.50;;
15261;SDS011;7733;51.554;13.590;2023-12-20T13:03:58;3.73;;;1.60;;
15261;SDS011;7733;51.554;13.590;2023-12-20T13:06:23;2.90;;;1.60;;
15261;SDS011;7733;51.554;13.590;2023-12-20T13:08:49;2.80;;;1.40;;
15261;SDS011;7733;51.554;13.590;2023-12-20T13:11:15;4.30;;;1.40;;
15261;SDS011;7733;51.554;13.590;2023-12-20T13:13:41;2.30;;;1.37;;
15261;SDS011;7733;51.554;13.590;2023-12-20T13:16:07;2.87;;;1.47;;
15261;SDS011;7733;51.554;13.590;2023-12-20T13:18:33;2.20;;;1.57;;
15261;SDS011;7733;51.554;13.590;2023-12-20T13:20:58;3.33;;;1.53;;
15261;SDS011;7733;51.554;13.590;2023-12-20T13:23:24;3.07;;;1.37;;
15261;SDS011;7733;51.554;13.590;2023-12-20T13:25:50;2.17;;;1.30;;
15261;SDS011;7733;51.554;13.590;2023-12-20T13:28:16;3.10;;;1.40;;
15261;SDS011;7733;51.554;13.590;2023-12-20T13:30:42;2.07;;;1.23;;
15261;SDS011;7733;51.554;13.590;2023-12-20T13:33:08;4.43;;;1.60;;
15261;SDS011;7733;51.554;13.590;2023-12-20T13:35:34;2.43;;;1.50;;
15261;SDS011;7733;51.554;13.590;2023-12-20T13:38:00;2.47;;;1.33;;
15261;SDS011;7733;51.554;13.590;2023-12-20T13:40:25;3.10;;;1.57;;
15261;SDS011;7733;51.554;13.590;2023-12-20T13:42:51;3.53;;;1.43;;
15261;SDS011;7733;51.554;13.590;2023-12-20T13:45:17;2.27;;;1.23;;
15261;SDS011;7733;51.554;13.590;2023-12-20T13:47:43;2.23;;;1.43;;
15261;SDS011;7733;51.554;13.590;2023-12-20T13:50:09;2.93;;;1.50;;
15261;SDS011;7733;51.554;13.590;2023-12-20T13:52:35;3.57;;;1.20;;
15261;SDS011;7733;51.554;13.590;2023-12-20T13:55:01;2.53;;;1.40;;
15261;SDS011;7733;51.554;13.590;2023-12-20T13:57:27;2.53;;;1.53;;
15261;SDS011;7733;51.554;13.590;2023-12-20T13:59:54;3.10;;;1.50;;
15261;SDS011;7733;51.554;13.590;2023-12-20T14:02:22;3.63;;;1.57;;
15261;SDS011;7733;51.554;13.590;2023-12-20T14:04:48;1.80;;;1.30;;
15261;SDS011;7733;51.554;13.590;2023-12-20T14:07:14;2.57;;;1.10;;
15261;SDS011;7733;51.554;13.590;2023-12-20T14:09:40;2.27;;;1.40;;
15261;SDS011;7733;51.554;13.590;2023-12-20T14:12:10;1.93;;;1.20;;
15261;SDS011;7733;51.554;13.590;2023-12-20T14:14:36;2.40;;;1.17;;
15261;SDS011;7733;51.554;13.590;2023-12-20T14:17:02;2.17;;;1.30;;
15261;SDS011;7733;51.554;13.590;2023-12-20T14:19:31;2.03;;;1.30;;
15261;SDS011;7733;51.554;13.590;2023-12-20T14:21:57;2.60;;;1.20;;
15261;SDS011;7733;51.554;13.590;2023-12-20T14:24:26;2.03;;;1.40;;
15261;SDS011;7733;51.554;13.590;2023-12-20T14:26:52;3.37;;;1.40;;
15261;SDS011;7733;51.554;13.590;2023-12-20T14:29:18;1.37;;;1.27;;
15261;SDS011;7733;51.554;13.590;2023-12-20T14:31:44;2.10;;;1.40;;
15261;SDS011;7733;51.554;13.590;2023-12-20T14:34:10;2.57;;;1.30;;
15261;SDS011;7733;51.554;13.590;2023-12-20T14:36:36;3.47;;;1.23;;
15261;SDS011;7733;51.554;13.590;2023-12-20T14:39:03;2.70;;;1.20;;
15261;SDS011;7733;51.554;13.590;2023-12-20T14:41:29;2.67;;;1.67;;
15261;SDS011;7733;51.554;13.590;2023-12-20T14:43:55;1.93;;;1.10;;
15261;SDS011;7733;51.554;13.590;2023-12-20T14:46:21;2.70;;;1.80;;
15261;SDS011;7733;51.554;13.590;2023-12-20T14:48:47;1.53;;;1.27;;
15261;SDS011;7733;51.554;13.590;2023-12-20T14:51:14;2.30;;;1.20;;
15261;SDS011;7733;51.554;13.590;2023-12-20T14:53:40;1.50;;;1.27;;
15261;SDS011;7733;51.554;13.590;2023-12-20T14:56:07;2.47;;;1.33;;